sensor_id;sensor_type;location;lat;lon;timestamp;P1;durP1;ratioP1;P2;durP2;ratioP2
40286;SDS011;25998;46.604;13.610;2023-12-14T00:01:29;0.47;;;0.40;;
40286;SDS011;25998;46.604;13.610;2023-12-14T00:04:40;0.73;;;0.47;;
40286;SDS011;25998;46.604;13.610;2023-12-14T00:07:51;1.98;;;0.57;;
40286;SDS011;25998;46.604;13.610;2023-12-14T00:11:03;0.45;;;0.45;;
40286;SDS011;25998;46.604;13.610;2023-12-14T00:14:18;1.67;;;0.60;;
40286;SDS011;25998;46.604;13.610;2023-12-14T00:17:29;1.05;;;0.70;;
40286;SDS011;25998;46.604;13.610;2023-12-14T00:20:39;1.30;;;0.80;;
40286;SDS011;25998;46.604;13.610;2023-12-14T00:23:50;0.98;;;0.70;;
40286;SDS011;25998;46.604;13.610;2023-12-14T00:27:01;1.85;;;0.90;;
40286;SDS011;25998;46.604;13.610;2023-12-14T00:30:12;0.85;;;0.70;;
40286;SDS011;25998;46.604;13.610;2023-12-14T00:33:23;1.67;;;1.00;;
40286;SDS011;25998;46.604;13.610;2023-12-14T00:36:34;1.30;;;0.75;;
40286;SDS011;25998;46.604;13.610;2023-12-14T00:39:45;1.23;;;0.70;;
40286;SDS011;25998;46.604;13.610;2023-12-14T00:42:56;0.90;;;0.70;;
40286;SDS011;25998;46.604;13.610;2023-12-14T00:46:07;0.68;;;0.68;;
40286;SDS011;25998;46.604;13.610;2023-12-14T00:49:19;2.25;;;0.77;;
40286;SDS011;25998;46.604;13.610;2023-12-14T00:52:30;1.10;;;0.70;;
40286;SDS011;25998;46.604;13.610;2023-12-14T00:55:41;0.68;;;0.60;;
40286;SDS011;25998;46.604;13.610;2023-12-14T00:58:51;0.75;;;0.63;;
40286;SDS011;25998;46.604;13.610;2023-12-14T01:02:02;0.88;;;0.60;;
40286;SDS011;25998;46.604;13.610;2023-12-14T01:05:13;0.95;;;0.68;;
40286;SDS011;25998;46.604;13.610;2023-12-14T01:08:24;208.20;;;12.55;;
40286;SDS011;25998;46.604;13.610;2023-12-14T01:11:35;87.63;;;7.38;;
40286;SDS011;25998;46.604;13.610;2023-12-14T01:14:46;74.15;;;6.70;;
40286;SDS011;25998;46.604;13.610;2023-12-14T01:17:57;26.80;;;3.00;;
40286;SDS011;25998;46.604;13.610;2023-12-14T01:21:08;69.32;;;7.63;;
40286;SDS011;25998;46.604;13.610;2023-12-14T01:24:19;28.45;;;4.65;;
40286;SDS011;25998;46.604;13.610;2023-12-14T01:27:29;75.85;;;8.43;;
40286;SDS011;25998;46.604;13.610;2023-12-14T01:30:40;131.60;;;13.15;;
40286;SDS011;25998;46.604;13.610;2023-12-14T01:33:51;19.65;;;4.68;;
40286;SDS011;25998;46.604;13.610;2023-12-14T01:37:02;9.77;;;4.93;;
40286;SDS011;25998;46.604;13.610;2023-12-14T01:40:13;8.50;;;5.10;;
40286;SDS011;25998;46.604;13.610;2023-12-14T01:43:24;6.45;;;5.05;;
40286;SDS011;25998;46.604;13.610;2023-12-14T01:46:35;25.23;;;6.97;;
40286;SDS011;25998;46.604;13.610;2023-12-14T01:49:45;8.00;;;5.72;;
40286;SDS011;25998;46.604;13.610;2023-12-14T01:52:56;9.95;;;5.70;;
40286;SDS011;25998;46.604;13.610;2023-12-14T01:56:07;11.90;;;6.72;;
40286;SDS011;25998;46.604;13.610;2023-12-14T01:59:18;7.22;;;4.63;;
40286;SDS011;25998;46.604;13.610;2023-12-14T02:02:29;5.53;;;4.57;;
40286;SDS011;25998;46.604;13.610;2023-12-14T02:05:40;6.15;;;4.47;;
40286;SDS011;25998;46.604;13.610;2023-12-14T02:08:52;4.63;;;3.63;;
40286;SDS011;25998;46.604;13.610;2023-12-14T02:12:03;4.68;;;3.70;;
40286;SDS011;25998;46.604;13.610;2023-12-14T02:15:15;3.78;;;3.03;;
40286;SDS011;25998;46.604;13.610;2023-12-14T02:18:26;3.97;;;3.42;;
40286;SDS011;25998;46.604;13.610;2023-12-14T02:21:36;5.15;;;4.13;;
40286;SDS011;25998;46.604;13.610;2023-12-14T02:24:47;5.32;;;3.50;;
40286;SDS011;25998;46.604;13.610;2023-12-14T02:27:58;32.35;;;6.72;;
40286;SDS011;25998;46.604;13.610;2023-12-14T02:31:09;84.63;;;11.13;;
40286;SDS011;25998;46.604;13.610;2023-12-14T02:34:20;141.93;;;15.75;;
40286;SDS011;25998;46.604;13.610;2023-12-14T02:37:31;112.03;;;14.48;;
40286;SDS011;25998;46.604;13.610;2023-12-14T02:40:42;23.00;;;8.35;;
40286;SDS011;25998;46.604;13.610;2023-12-14T02:43:53;143.88;;;18.20;;
40286;SDS011;25998;46.604;13.610;2023-12-14T02:47:04;218.00;;;21.58;;
40286;SDS011;25998;46.604;13.610;2023-12-14T02:50:15;92.88;;;11.65;;
40286;SDS011;25998;46.604;13.610;2023-12-14T02:53:26;97.45;;;11.05;;
40286;SDS011;25998;46.604;13.610;2023-12-14T02:56:37;30.05;;;6.65;;
40286;SDS011;25998;46.604;13.610;2023-12-14T02:59:48;151.30;;;15.23;;
40286;SDS011;25998;46.604;13.610;2023-12-14T03:02:59;13.07;;;5.70;;
40286;SDS011;25998;46.604;13.610;2023-12-14T03:06:10;111.47;;;10.13;;
40286;SDS011;25998;46.604;13.610;2023-12-14T03:09:21;67.32;;;8.38;;
40286;SDS011;25998;46.604;13.610;2023-12-14T03:12:32;39.85;;;8.30;;
40286;SDS011;25998;46.604;13.610;2023-12-14T03:15:43;5.00;;;4.50;;
40286;SDS011;25998;46.604;13.610;2023-12-14T03:18:53;10.73;;;5.22;;
40286;SDS011;25998;46.604;13.610;2023-12-14T03:22:05;5.28;;;4.43;;
40286;SDS011;25998;46.604;13.610;2023-12-14T03:25:16;8.13;;;5.03;;
40286;SDS011;25998;46.604;13.610;2023-12-14T03:28:27;4.20;;;3.80;;
40286;SDS011;25998;46.604;13.610;2023-12-14T03:31:38;4.60;;;3.70;;
40286;SDS011;25998;46.604;13.610;2023-12-14T03:34:50;5.95;;;4.15;;
40286;SDS011;25998;46.604;13.610;2023-12-14T03:38:00;4.28;;;3.20;;
40286;SDS011;25998;46.604;13.610;2023-12-14T03:41:11;6.85;;;3.75;;
40286;SDS011;25998;46.604;13.610;2023-12-14T03:44:22;4.30;;;3.00;;
40286;SDS011;25998;46.604;13.610;2023-12-14T03:47:34;3.30;;;2.60;;
40286;SDS011;25998;46.604;13.610;2023-12-14T03:50:45;3.80;;;3.00;;
40286;SDS011;25998;46.604;13.610;2023-12-14T03:53:56;3.15;;;2.50;;
40286;SDS011;25998;46.604;13.610;2023-12-14T03:57:07;4.57;;;2.25;;
40286;SDS011;25998;46.604;13.610;2023-12-14T04:00:18;6.35;;;2.90;;
40286;SDS011;25998;46.604;13.610;2023-12-14T04:03:28;4.53;;;2.95;;
40286;SDS011;25998;46.604;13.610;2023-12-14T04:06:39;4.85;;;2.80;;
40286;SDS011;25998;46.604;13.610;2023-12-14T04:09:50;2.90;;;1.83;;
40286;SDS011;25998;46.604;13.610;2023-12-14T04:13:01;2.38;;;1.67;;
40286;SDS011;25998;46.604;13.610;2023-12-14T04:16:12;2.35;;;1.67;;
40286;SDS011;25998;46.604;13.610;2023-12-14T04:19:23;3.33;;;1.98;;
40286;SDS011;25998;46.604;13.610;2023-12-14T04:22:34;5.25;;;2.10;;
40286;SDS011;25998;46.604;13.610;2023-12-14T04:25:44;4.95;;;1.75;;
40286;SDS011;25998;46.604;13.610;2023-12-14T04:28:55;4.15;;;1.70;;
40286;SDS011;25998;46.604;13.610;2023-12-14T04:32:06;4.70;;;1.90;;
40286;SDS011;25998;46.604;13.610;2023-12-14T04:35:17;4.47;;;2.60;;
40286;SDS011;25998;46.604;13.610;2023-12-14T04:38:28;4.38;;;2.60;;
40286;SDS011;25998;46.604;13.610;2023-12-14T04:41:39;5.95;;;4.53;;
40286;SDS011;25998;46.604;13.610;2023-12-14T04:44:50;4.70;;;3.53;;
40286;SDS011;25998;46.604;13.610;2023-12-14T04:48:00;3.47;;;2.65;;
40286;SDS011;25998;46.604;13.610;2023-12-14T04:51:12;8.00;;;4.30;;
40286;SDS011;25998;46.604;13.610;2023-12-14T04:54:23;7.97;;;4.10;;
40286;SDS011;25998;46.604;13.610;2023-12-14T04:57:35;6.97;;;4.05;;
40286;SDS011;25998;46.604;13.610;2023-12-14T05:00:46;6.53;;;3.22;;
40286;SDS011;25998;46.604;13.610;2023-12-14T05:03:57;6.00;;;2.90;;
40286;SDS011;25998;46.604;13.610;2023-12-14T05:07:08;10.80;;;3.50;;
40286;SDS011;25998;46.604;13.610;2023-12-14T05:10:19;10.10;;;3.42;;
40286;SDS011;25998;46.604;13.610;2023-12-14T05:13:30;5.75;;;3.20;;
40286;SDS011;25998;46.604;13.610;2023-12-14T05:16:41;6.05;;;3.53;;
40286;SDS011;25998;46.604;13.610;2023-12-14T05:19:51;7.70;;;3.55;;
40286;SDS011;25998;46.604;13.610;2023-12-14T05:23:02;8.75;;;3.85;;
40286;SDS011;25998;46.604;13.610;2023-12-14T05:26:13;6.85;;;3.60;;
40286;SDS011;25998;46.604;13.610;2023-12-14T05:29:24;8.30;;;4.68;;
40286;SDS011;25998;46.604;13.610;2023-12-14T05:32:35;6.35;;;3.67;;
40286;SDS011;25998;46.604;13.610;2023-12-14T05:35:46;6.53;;;3.75;;
40286;SDS011;25998;46.604;13.610;2023-12-14T05:38:57;19.15;;;5.53;;
40286;SDS011;25998;46.604;13.610;2023-12-14T05:42:08;11.52;;;4.68;;
40286;SDS011;25998;46.604;13.610;2023-12-14T05:45:18;9.75;;;5.50;;
40286;SDS011;25998;46.604;13.610;2023-12-14T05:48:29;11.38;;;4.30;;
40286;SDS011;25998;46.604;13.610;2023-12-14T05:51:40;10.50;;;4.38;;
40286;SDS011;25998;46.604;13.610;2023-12-14T05:54:51;16.77;;;4.57;;
40286;SDS011;25998;46.604;13.610;2023-12-14T05:58:02;14.52;;;4.95;;
40286;SDS011;25998;46.604;13.610;2023-12-14T06:01:13;7.65;;;4.05;;
40286;SDS011;25998;46.604;13.610;2023-12-14T06:04:26;5.80;;;3.50;;
40286;SDS011;25998;46.604;13.610;2023-12-14T06:07:37;13.27;;;4.18;;
40286;SDS011;25998;46.604;13.610;2023-12-14T06:10:48;7.00;;;3.33;;
40286;SDS011;25998;46.604;13.610;2023-12-14T06:13:59;10.73;;;3.97;;
40286;SDS011;25998;46.604;13.610;2023-12-14T06:17:10;16.58;;;3.97;;
40286;SDS011;25998;46.604;13.610;2023-12-14T06:20:21;16.83;;;3.70;;
40286;SDS011;25998;46.604;13.610;2023-12-14T06:23:33;42.92;;;6.38;;
40286;SDS011;25998;46.604;13.610;2023-12-14T06:26:45;40.05;;;9.40;;
40286;SDS011;25998;46.604;13.610;2023-12-14T06:29:56;9.95;;;5.40;;
40286;SDS011;25998;46.604;13.610;2023-12-14T06:33:07;15.35;;;5.90;;
40286;SDS011;25998;46.604;13.610;2023-12-14T06:36:18;18.35;;;6.57;;
40286;SDS011;25998;46.604;13.610;2023-12-14T06:39:29;34.38;;;6.80;;
40286;SDS011;25998;46.604;13.610;2023-12-14T06:42:39;19.30;;;5.93;;
40286;SDS011;25998;46.604;13.610;2023-12-14T06:45:52;25.15;;;5.68;;
40286;SDS011;25998;46.604;13.610;2023-12-14T06:49:03;47.97;;;5.50;;
40286;SDS011;25998;46.604;13.610;2023-12-14T06:52:14;115.75;;;11.32;;
40286;SDS011;25998;46.604;13.610;2023-12-14T06:55:25;82.15;;;9.57;;
40286;SDS011;25998;46.604;13.610;2023-12-14T06:58:39;120.15;;;11.18;;
40286;SDS011;25998;46.604;13.610;2023-12-14T07:01:51;101.55;;;7.90;;
40286;SDS011;25998;46.604;13.610;2023-12-14T07:05:02;13.40;;;4.57;;
40286;SDS011;25998;46.604;13.610;2023-12-14T07:08:13;75.68;;;8.60;;
40286;SDS011;25998;46.604;13.610;2023-12-14T07:11:24;197.95;;;15.80;;
40286;SDS011;25998;46.604;13.610;2023-12-14T07:14:35;246.93;;;19.63;;
40286;SDS011;25998;46.604;13.610;2023-12-14T07:17:46;210.38;;;16.08;;
40286;SDS011;25998;46.604;13.610;2023-12-14T07:20:57;151.77;;;12.30;;
40286;SDS011;25998;46.604;13.610;2023-12-14T07:24:08;11.15;;;3.75;;
40286;SDS011;25998;46.604;13.610;2023-12-14T07:27:19;145.30;;;12.93;;
40286;SDS011;25998;46.604;13.610;2023-12-14T07:30:30;129.98;;;9.27;;
40286;SDS011;25998;46.604;13.610;2023-12-14T07:33:40;133.38;;;8.65;;
40286;SDS011;25998;46.604;13.610;2023-12-14T07:36:51;27.13;;;4.80;;
40286;SDS011;25998;46.604;13.610;2023-12-14T07:40:02;101.13;;;6.85;;
40286;SDS011;25998;46.604;13.610;2023-12-14T07:43:14;158.82;;;10.85;;
40286;SDS011;25998;46.604;13.610;2023-12-14T07:46:24;93.13;;;7.30;;
40286;SDS011;25998;46.604;13.610;2023-12-14T07:49:36;134.73;;;10.10;;
40286;SDS011;25998;46.604;13.610;2023-12-14T07:52:46;148.15;;;10.43;;
40286;SDS011;25998;46.604;13.610;2023-12-14T07:55:57;168.65;;;10.73;;
40286;SDS011;25998;46.604;13.610;2023-12-14T07:59:08;79.43;;;7.43;;
40286;SDS011;25998;46.604;13.610;2023-12-14T08:02:20;116.60;;;8.50;;
40286;SDS011;25998;46.604;13.610;2023-12-14T08:05:31;82.45;;;6.93;;
40286;SDS011;25998;46.604;13.610;2023-12-14T08:08:41;77.97;;;8.40;;
40286;SDS011;25998;46.604;13.610;2023-12-14T08:11:52;18.27;;;6.38;;
40286;SDS011;25998;46.604;13.610;2023-12-14T08:15:03;25.15;;;7.13;;
40286;SDS011;25998;46.604;13.610;2023-12-14T08:18:14;15.85;;;7.55;;
40286;SDS011;25998;46.604;13.610;2023-12-14T08:21:25;10.52;;;6.05;;
40286;SDS011;25998;46.604;13.610;2023-12-14T08:24:36;6.45;;;5.30;;
40286;SDS011;25998;46.604;13.610;2023-12-14T08:27:48;8.43;;;4.75;;
40286;SDS011;25998;46.604;13.610;2023-12-14T08:30:59;10.32;;;4.85;;
40286;SDS011;25998;46.604;13.610;2023-12-14T08:34:12;18.08;;;5.22;;
40286;SDS011;25998;46.604;13.610;2023-12-14T08:37:23;14.48;;;4.68;;
40286;SDS011;25998;46.604;13.610;2023-12-14T08:40:33;26.92;;;5.28;;
40286;SDS011;25998;46.604;13.610;2023-12-14T08:43:44;17.80;;;4.75;;
40286;SDS011;25998;46.604;13.610;2023-12-14T08:46:55;76.18;;;7.97;;
40286;SDS011;25998;46.604;13.610;2023-12-14T08:50:06;106.88;;;9.07;;
40286;SDS011;25998;46.604;13.610;2023-12-14T08:53:18;132.52;;;10.20;;
40286;SDS011;25998;46.604;13.610;2023-12-14T08:56:29;56.10;;;6.15;;
40286;SDS011;25998;46.604;13.610;2023-12-14T08:59:40;84.80;;;8.25;;
40286;SDS011;25998;46.604;13.610;2023-12-14T09:02:51;57.15;;;6.20;;
40286;SDS011;25998;46.604;13.610;2023-12-14T09:06:02;131.30;;;12.18;;
40286;SDS011;25998;46.604;13.610;2023-12-14T09:09:15;191.88;;;13.43;;
40286;SDS011;25998;46.604;13.610;2023-12-14T09:12:26;57.58;;;6.10;;
40286;SDS011;25998;46.604;13.610;2023-12-14T09:15:37;33.97;;;5.03;;
40286;SDS011;25998;46.604;13.610;2023-12-14T09:18:48;176.75;;;14.48;;
40286;SDS011;25998;46.604;13.610;2023-12-14T09:21:59;62.45;;;6.55;;
40286;SDS011;25998;46.604;13.610;2023-12-14T09:25:10;49.15;;;7.20;;
40286;SDS011;25998;46.604;13.610;2023-12-14T09:28:21;46.78;;;6.15;;
40286;SDS011;25998;46.604;13.610;2023-12-14T09:31:32;49.47;;;6.68;;
40286;SDS011;25998;46.604;13.610;2023-12-14T09:34:44;137.63;;;12.32;;
40286;SDS011;25998;46.604;13.610;2023-12-14T09:37:55;130.63;;;9.77;;
40286;SDS011;25998;46.604;13.610;2023-12-14T09:41:06;120.63;;;9.75;;
40286;SDS011;25998;46.604;13.610;2023-12-14T09:44:19;119.35;;;10.93;;
40286;SDS011;25998;46.604;13.610;2023-12-14T09:47:29;135.18;;;11.45;;
40286;SDS011;25998;46.604;13.610;2023-12-14T09:50:41;114.63;;;9.52;;
40286;SDS011;25998;46.604;13.610;2023-12-14T09:53:52;183.65;;;13.65;;
40286;SDS011;25998;46.604;13.610;2023-12-14T09:57:08;81.63;;;8.23;;
40286;SDS011;25998;46.604;13.610;2023-12-14T10:00:37;260.25;;;18.00;;
40286;SDS011;25998;46.604;13.610;2023-12-14T10:03:50;343.00;;;24.27;;
40286;SDS011;25998;46.604;13.610;2023-12-14T10:07:16;344.33;;;23.73;;
40286;SDS011;25998;46.604;13.610;2023-12-14T10:10:28;435.63;;;32.45;;
40286;SDS011;25998;46.604;13.610;2023-12-14T10:13:39;466.02;;;30.15;;
40286;SDS011;25998;46.604;13.610;2023-12-14T10:16:51;216.18;;;16.40;;
40286;SDS011;25998;46.604;13.610;2023-12-14T10:20:02;436.83;;;33.42;;
40286;SDS011;25998;46.604;13.610;2023-12-14T10:23:15;383.15;;;26.05;;
40286;SDS011;25998;46.604;13.610;2023-12-14T10:26:26;423.83;;;29.17;;
40286;SDS011;25998;46.604;13.610;2023-12-14T10:29:37;451.60;;;29.92;;
40286;SDS011;25998;46.604;13.610;2023-12-14T10:32:49;215.32;;;14.65;;
40286;SDS011;25998;46.604;13.610;2023-12-14T10:36:00;341.13;;;23.80;;
40286;SDS011;25998;46.604;13.610;2023-12-14T10:39:12;52.42;;;8.13;;
40286;SDS011;25998;46.604;13.610;2023-12-14T10:42:25;193.40;;;16.20;;
40286;SDS011;25998;46.604;13.610;2023-12-14T10:45:38;166.40;;;16.23;;
40286;SDS011;25998;46.604;13.610;2023-12-14T10:48:51;518.40;;;39.63;;
40286;SDS011;25998;46.604;13.610;2023-12-14T10:52:02;504.05;;;40.83;;
40286;SDS011;25998;46.604;13.610;2023-12-14T10:58:55;228.90;;;14.73;;
40286;SDS011;25998;46.604;13.610;2023-12-14T11:02:07;544.33;;;41.00;;
40286;SDS011;25998;46.604;13.610;2023-12-14T11:05:22;514.28;;;34.38;;
40286;SDS011;25998;46.604;13.610;2023-12-14T11:08:39;508.38;;;32.85;;
40286;SDS011;25998;46.604;13.610;2023-12-14T11:15:06;499.30;;;33.33;;
40286;SDS011;25998;46.604;13.610;2023-12-14T11:18:20;180.77;;;12.82;;
40286;SDS011;25998;46.604;13.610;2023-12-14T11:21:35;353.73;;;24.45;;
40286;SDS011;25998;46.604;13.610;2023-12-14T11:24:52;374.60;;;24.45;;
40286;SDS011;25998;46.604;13.610;2023-12-14T11:28:04;418.75;;;29.20;;
40286;SDS011;25998;46.604;13.610;2023-12-14T11:31:18;441.80;;;29.40;;
40286;SDS011;25998;46.604;13.610;2023-12-14T11:34:30;406.77;;;26.80;;
40286;SDS011;25998;46.604;13.610;2023-12-14T11:37:41;501.60;;;36.45;;
40286;SDS011;25998;46.604;13.610;2023-12-14T11:40:52;384.20;;;24.45;;
40286;SDS011;25998;46.604;13.610;2023-12-14T11:44:03;388.00;;;27.25;;
40286;SDS011;25998;46.604;13.610;2023-12-14T11:47:14;388.52;;;30.08;;
40286;SDS011;25998;46.604;13.610;2023-12-14T11:50:26;347.52;;;22.92;;
40286;SDS011;25998;46.604;13.610;2023-12-14T11:53:37;328.30;;;21.95;;
40286;SDS011;25998;46.604;13.610;2023-12-14T11:56:49;203.80;;;17.02;;
40286;SDS011;25998;46.604;13.610;2023-12-14T12:00:00;31.38;;;7.07;;
40286;SDS011;25998;46.604;13.610;2023-12-14T12:06:27;112.88;;;10.88;;
40286;SDS011;25998;46.604;13.610;2023-12-14T12:09:40;255.65;;;16.20;;
40286;SDS011;25998;46.604;13.610;2023-12-14T12:12:58;76.90;;;7.93;;
40286;SDS011;25998;46.604;13.610;2023-12-14T12:16:14;146.93;;;11.32;;
40286;SDS011;25998;46.604;13.610;2023-12-14T12:19:25;86.53;;;8.45;;
40286;SDS011;25998;46.604;13.610;2023-12-14T12:22:36;103.38;;;9.52;;
40286;SDS011;25998;46.604;13.610;2023-12-14T12:25:47;120.78;;;10.82;;
40286;SDS011;25998;46.604;13.610;2023-12-14T12:28:58;132.82;;;10.57;;
40286;SDS011;25998;46.604;13.610;2023-12-14T12:32:09;468.73;;;32.35;;
40286;SDS011;25998;46.604;13.610;2023-12-14T12:35:20;63.88;;;6.32;;
40286;SDS011;25998;46.604;13.610;2023-12-14T12:38:31;567.80;;;38.42;;
40286;SDS011;25998;46.604;13.610;2023-12-14T12:41:42;357.55;;;25.75;;
40286;SDS011;25998;46.604;13.610;2023-12-14T12:44:53;392.77;;;32.35;;
40286;SDS011;25998;46.604;13.610;2023-12-14T12:48:04;437.83;;;37.63;;
40286;SDS011;25998;46.604;13.610;2023-12-14T12:51:17;326.95;;;40.30;;
40286;SDS011;25998;46.604;13.610;2023-12-14T12:54:27;247.73;;;20.63;;
40286;SDS011;25998;46.604;13.610;2023-12-14T12:57:41;85.20;;;14.55;;
40286;SDS011;25998;46.604;13.610;2023-12-14T13:00:52;353.65;;;27.73;;
40286;SDS011;25998;46.604;13.610;2023-12-14T13:04:02;335.35;;;20.58;;
40286;SDS011;25998;46.604;13.610;2023-12-14T13:07:14;274.20;;;21.60;;
40286;SDS011;25998;46.604;13.610;2023-12-14T13:10:26;264.45;;;19.58;;
40286;SDS011;25998;46.604;13.610;2023-12-14T13:13:37;296.20;;;22.17;;
40286;SDS011;25998;46.604;13.610;2023-12-14T13:16:48;250.48;;;17.92;;
40286;SDS011;25998;46.604;13.610;2023-12-14T13:19:59;228.88;;;15.02;;
40286;SDS011;25998;46.604;13.610;2023-12-14T13:23:10;63.28;;;8.70;;
40286;SDS011;25998;46.604;13.610;2023-12-14T13:26:22;118.82;;;9.93;;
40286;SDS011;25998;46.604;13.610;2023-12-14T13:29:33;62.83;;;7.13;;
40286;SDS011;25998;46.604;13.610;2023-12-14T13:32:45;115.75;;;12.07;;
40286;SDS011;25998;46.604;13.610;2023-12-14T13:35:56;144.30;;;12.30;;
40286;SDS011;25998;46.604;13.610;2023-12-14T13:39:07;67.32;;;7.43;;
40286;SDS011;25998;46.604;13.610;2023-12-14T13:42:18;295.33;;;20.83;;
40286;SDS011;25998;46.604;13.610;2023-12-14T13:45:29;324.88;;;21.17;;
40286;SDS011;25998;46.604;13.610;2023-12-14T13:48:40;161.50;;;14.43;;
40286;SDS011;25998;46.604;13.610;2023-12-14T13:51:51;240.88;;;17.83;;
40286;SDS011;25998;46.604;13.610;2023-12-14T13:55:02;90.97;;;9.18;;
40286;SDS011;25998;46.604;13.610;2023-12-14T13:58:14;79.63;;;7.50;;
40286;SDS011;25998;46.604;13.610;2023-12-14T14:01:25;213.25;;;16.33;;
40286;SDS011;25998;46.604;13.610;2023-12-14T14:04:36;23.17;;;4.68;;
40286;SDS011;25998;46.604;13.610;2023-12-14T14:07:47;6.22;;;3.42;;
40286;SDS011;25998;46.604;13.610;2023-12-14T14:10:58;160.88;;;15.77;;
40286;SDS011;25998;46.604;13.610;2023-12-14T14:14:09;165.05;;;13.85;;
40286;SDS011;25998;46.604;13.610;2023-12-14T14:17:20;176.95;;;14.88;;
40286;SDS011;25998;46.604;13.610;2023-12-14T14:20:31;61.97;;;10.02;;
40286;SDS011;25998;46.604;13.610;2023-12-14T14:23:42;47.13;;;7.88;;
40286;SDS011;25998;46.604;13.610;2023-12-14T14:26:53;109.22;;;10.82;;
40286;SDS011;25998;46.604;13.610;2023-12-14T14:30:04;31.60;;;5.43;;
40286;SDS011;25998;46.604;13.610;2023-12-14T14:33:15;53.75;;;7.28;;
40286;SDS011;25998;46.604;13.610;2023-12-14T14:36:29;3.47;;;2.42;;
40286;SDS011;25998;46.604;13.610;2023-12-14T14:39:40;3.60;;;2.35;;
40286;SDS011;25998;46.604;13.610;2023-12-14T14:42:53;5.32;;;2.70;;
40286;SDS011;25998;46.604;13.610;2023-12-14T14:46:04;87.68;;;10.07;;
40286;SDS011;25998;46.604;13.610;2023-12-14T14:49:14;248.80;;;21.80;;
40286;SDS011;25998;46.604;13.610;2023-12-14T14:52:25;285.70;;;20.27;;
40286;SDS011;25998;46.604;13.610;2023-12-14T14:55:36;457.60;;;29.88;;
40286;SDS011;25998;46.604;13.610;2023-12-14T14:58:47;99.25;;;9.10;;
40286;SDS011;25998;46.604;13.610;2023-12-14T15:01:59;112.22;;;11.77;;
40286;SDS011;25998;46.604;13.610;2023-12-14T15:05:12;72.95;;;7.40;;
40286;SDS011;25998;46.604;13.610;2023-12-14T15:08:23;383.10;;;24.55;;
40286;SDS011;25998;46.604;13.610;2023-12-14T15:11:33;126.93;;;12.65;;
40286;SDS011;25998;46.604;13.610;2023-12-14T15:14:44;195.85;;;13.38;;
40286;SDS011;25998;46.604;13.610;2023-12-14T15:17:55;228.80;;;16.10;;
40286;SDS011;25998;46.604;13.610;2023-12-14T15:21:07;179.02;;;15.82;;
40286;SDS011;25998;46.604;13.610;2023-12-14T15:24:18;306.08;;;24.15;;
40286;SDS011;25998;46.604;13.610;2023-12-14T15:27:29;273.75;;;28.58;;
40286;SDS011;25998;46.604;13.610;2023-12-14T15:30:42;134.70;;;13.70;;
40286;SDS011;25998;46.604;13.610;2023-12-14T15:33:53;137.43;;;13.65;;
40286;SDS011;25998;46.604;13.610;2023-12-14T15:37:04;16.70;;;4.82;;
40286;SDS011;25998;46.604;13.610;2023-12-14T15:40:15;142.20;;;20.50;;
40286;SDS011;25998;46.604;13.610;2023-12-14T15:43:26;213.07;;;18.83;;
40286;SDS011;25998;46.604;13.610;2023-12-14T15:46:37;156.10;;;13.40;;
40286;SDS011;25998;46.604;13.610;2023-12-14T15:49:47;173.90;;;14.68;;
40286;SDS011;25998;46.604;13.610;2023-12-14T15:52:58;277.25;;;19.77;;
40286;SDS011;25998;46.604;13.610;2023-12-14T15:56:09;235.10;;;22.40;;
40286;SDS011;25998;46.604;13.610;2023-12-14T15:59:20;75.13;;;10.30;;
40286;SDS011;25998;46.604;13.610;2023-12-14T16:02:31;129.77;;;11.68;;
40286;SDS011;25998;46.604;13.610;2023-12-14T16:05:42;203.13;;;14.82;;
40286;SDS011;25998;46.604;13.610;2023-12-14T16:08:53;76.80;;;8.93;;
40286;SDS011;25998;46.604;13.610;2023-12-14T16:12:04;106.03;;;13.18;;
40286;SDS011;25998;46.604;13.610;2023-12-14T16:15:16;32.53;;;8.85;;
40286;SDS011;25998;46.604;13.610;2023-12-14T16:18:27;92.05;;;13.55;;
40286;SDS011;25998;46.604;13.610;2023-12-14T16:21:38;13.30;;;8.60;;
40286;SDS011;25998;46.604;13.610;2023-12-14T16:24:48;73.50;;;12.60;;
40286;SDS011;25998;46.604;13.610;2023-12-14T16:27:59;81.18;;;10.90;;
40286;SDS011;25998;46.604;13.610;2023-12-14T16:31:11;81.72;;;11.93;;
40286;SDS011;25998;46.604;13.610;2023-12-14T16:34:22;25.45;;;9.27;;
40286;SDS011;25998;46.604;13.610;2023-12-14T16:37:32;22.17;;;8.15;;
40286;SDS011;25998;46.604;13.610;2023-12-14T16:40:43;88.45;;;13.75;;
40286;SDS011;25998;46.604;13.610;2023-12-14T16:43:54;175.25;;;22.20;;
40286;SDS011;25998;46.604;13.610;2023-12-14T16:47:05;41.80;;;14.40;;
40286;SDS011;25998;46.604;13.610;2023-12-14T16:50:19;82.57;;;16.13;;
40286;SDS011;25998;46.604;13.610;2023-12-14T16:53:30;249.73;;;27.80;;
40286;SDS011;25998;46.604;13.610;2023-12-14T16:56:40;160.55;;;18.75;;
40286;SDS011;25998;46.604;13.610;2023-12-14T16:59:52;51.50;;;11.05;;
40286;SDS011;25998;46.604;13.610;2023-12-14T17:03:03;55.50;;;11.00;;
40286;SDS011;25998;46.604;13.610;2023-12-14T17:06:18;55.72;;;9.02;;
40286;SDS011;25998;46.604;13.610;2023-12-14T17:09:30;108.70;;;17.92;;
40286;SDS011;25998;46.604;13.610;2023-12-14T17:12:41;29.77;;;10.02;;
40286;SDS011;25998;46.604;13.610;2023-12-14T17:15:52;30.45;;;7.93;;
40286;SDS011;25998;46.604;13.610;2023-12-14T17:19:03;53.42;;;10.27;;
40286;SDS011;25998;46.604;13.610;2023-12-14T17:22:14;53.78;;;17.67;;
40286;SDS011;25998;46.604;13.610;2023-12-14T17:25:25;47.47;;;12.63;;
40286;SDS011;25998;46.604;13.610;2023-12-14T17:28:35;61.85;;;13.52;;
40286;SDS011;25998;46.604;13.610;2023-12-14T17:31:46;243.88;;;20.88;;
40286;SDS011;25998;46.604;13.610;2023-12-14T17:34:57;42.08;;;7.45;;
40286;SDS011;25998;46.604;13.610;2023-12-14T17:38:08;339.70;;;23.95;;
40286;SDS011;25998;46.604;13.610;2023-12-14T17:41:19;255.48;;;19.08;;
40286;SDS011;25998;46.604;13.610;2023-12-14T17:44:31;204.05;;;18.10;;
40286;SDS011;25998;46.604;13.610;2023-12-14T17:47:42;61.83;;;9.15;;
40286;SDS011;25998;46.604;13.610;2023-12-14T17:50:53;50.47;;;7.80;;
40286;SDS011;25998;46.604;13.610;2023-12-14T17:54:05;53.55;;;7.78;;
40286;SDS011;25998;46.604;13.610;2023-12-14T17:57:16;174.00;;;20.55;;
40286;SDS011;25998;46.604;13.610;2023-12-14T18:00:27;79.03;;;12.85;;
40286;SDS011;25998;46.604;13.610;2023-12-14T18:03:38;215.02;;;18.08;;
40286;SDS011;25998;46.604;13.610;2023-12-14T18:06:49;124.82;;;13.50;;
40286;SDS011;25998;46.604;13.610;2023-12-14T18:10:00;59.55;;;10.98;;
40286;SDS011;25998;46.604;13.610;2023-12-14T18:13:13;85.43;;;12.18;;
40286;SDS011;25998;46.604;13.610;2023-12-14T18:16:23;10.63;;;7.03;;
40286;SDS011;25998;46.604;13.610;2023-12-14T18:19:34;8.23;;;6.68;;
40286;SDS011;25998;46.604;13.610;2023-12-14T18:22:45;20.88;;;12.75;;
40286;SDS011;25998;46.604;13.610;2023-12-14T18:25:57;124.57;;;18.33;;
40286;SDS011;25998;46.604;13.610;2023-12-14T18:29:08;138.90;;;18.08;;
40286;SDS011;25998;46.604;13.610;2023-12-14T18:32:19;131.43;;;16.58;;
40286;SDS011;25998;46.604;13.610;2023-12-14T18:35:30;43.08;;;10.68;;
40286;SDS011;25998;46.604;13.610;2023-12-14T18:38:41;200.15;;;20.63;;